createdAt,value
2023-04-19T00:02:12.954Z,2.97
2023-04-19T00:07:19.023Z,3.30
2023-04-19T00:12:25.002Z,2.67
2023-04-19T00:17:29.207Z,3.67
2023-04-19T00:22:33.073Z,2.97
2023-04-19T00:27:38.514Z,3.23
2023-04-19T00:33:12.979Z,3.20
2023-04-19T00:38:22.995Z,3.60
2023-04-19T00:43:28.013Z,3.67
2023-04-19T00:48:32.203Z,3.60
2023-04-19T00:54:03.615Z,3.23
2023-04-19T00:59:10.736Z,3.43
2023-04-19T01:04:23.470Z,3.37
2023-04-19T01:09:27.153Z,3.37
2023-04-19T01:14:42.470Z,3.93
2023-04-19T01:20:16.150Z,2.97
2023-04-19T01:25:23.474Z,3.97
2023-04-19T01:30:26.871Z,3.20
2023-04-19T01:35:32.257Z,3.87
2023-04-19T01:40:45.007Z,3.33
2023-04-19T01:45:55.604Z,2.97
2023-04-19T01:50:59.274Z,3.63
2023-04-19T01:56:22.954Z,3.40
2023-04-19T02:01:26.311Z,3.60
2023-04-19T02:06:29.710Z,2.60
2023-04-19T02:11:34.596Z,3.33
2023-04-19T02:16:38.083Z,3.17
2023-04-19T02:21:47.641Z,3.27
2023-04-19T02:27:01.200Z,2.90
2023-04-19T02:32:08.956Z,4.00
2023-04-19T02:37:19.821Z,3.50
2023-04-19T02:42:42.396Z,3.17
2023-04-19T02:47:47.089Z,3.47
2023-04-19T02:52:50.469Z,3.37
2023-04-19T02:57:57.908Z,3.40
2023-04-19T03:03:04.116Z,3.30
2023-04-19T03:08:11.393Z,2.93
2023-04-19T03:13:19.426Z,4.73
2023-04-19T03:18:29.815Z,3.10
2023-04-19T03:23:36.578Z,4.37
2023-04-19T03:28:46.562Z,3.37
2023-04-19T03:34:08.923Z,3.80
2023-04-19T03:39:22.695Z,3.50
2023-04-19T03:44:44.639Z,4.57
2023-04-19T03:49:51.409Z,3.40
2023-04-19T03:55:03.128Z,3.63
2023-04-19T04:00:24.608Z,3.40
2023-04-19T04:05:33.881Z,3.37
2023-04-19T04:10:37.622Z,3.50
2023-04-19T04:16:03.337Z,4.03
2023-04-19T04:21:10.690Z,3.40
2023-04-19T04:26:25.596Z,3.57
2023-04-19T04:31:37.301Z,3.63
2023-04-19T04:36:43.339Z,3.80
2023-04-19T04:41:47.444Z,3.33
2023-04-19T04:46:55.969Z,3.60
2023-04-19T04:52:04.962Z,3.10
2023-04-19T04:57:17.438Z,2.87
2023-04-19T05:02:22.722Z,4.77
2023-04-19T05:07:28.007Z,4.10
2023-04-19T05:12:34.158Z,3.17
2023-04-19T05:17:44.902Z,3.13
2023-04-19T05:22:49.130Z,3.27
2023-04-19T05:27:52.652Z,2.57
2023-04-19T05:33:06.014Z,2.70
2023-04-19T05:38:09.523Z,2.90
2023-04-19T05:43:13.585Z,2.47
2023-04-19T05:48:21.512Z,2.50
2023-04-19T05:53:49.878Z,2.50
2023-04-19T05:59:06.996Z,2.83
2023-04-19T06:04:15.420Z,2.17
2023-04-19T06:09:19.828Z,2.80
2023-04-19T06:14:23.498Z,2.37
2023-04-19T06:19:29.285Z,2.47
2023-04-19T06:24:35.656Z,3.33
2023-04-19T06:29:42.891Z,2.67
2023-04-19T06:34:47.938Z,2.17
2023-04-19T06:40:01.121Z,1.83
2023-04-19T06:45:06.330Z,2.37
2023-04-19T06:50:13.401Z,2.00
2023-04-19T06:55:17.105Z,2.57
2023-04-19T07:00:26.887Z,2.23
2023-04-19T07:05:32.314Z,2.20
2023-04-19T07:10:44.998Z,2.33
2023-04-19T07:15:56.020Z,2.20
2023-04-19T07:21:00.705Z,3.33
2023-04-19T07:26:04.745Z,2.73
2023-04-19T07:31:10.212Z,2.30
2023-04-19T07:36:15.066Z,2.20
2023-04-19T07:41:18.367Z,2.47
2023-04-19T07:46:21.650Z,1.97
2023-04-19T07:51:26.520Z,2.30
2023-04-19T07:56:29.651Z,2.23
2023-04-19T08:01:36.517Z,2.57
2023-04-19T08:06:54.764Z,2.50
2023-04-19T08:11:58.460Z,1.90
2023-04-19T08:17:24.247Z,2.37
2023-04-19T08:22:40.946Z,1.93
2023-04-19T08:27:44.361Z,2.10
2023-04-19T08:32:58.198Z,2.57
2023-04-19T08:38:06.707Z,2.10
2023-04-19T08:43:13.090Z,2.77
2023-04-19T08:48:19.238Z,3.10
2023-04-19T08:53:26.135Z,2.57
2023-04-19T08:58:52.101Z,3.17
2023-04-19T09:04:13.036Z,3.07
2023-04-19T09:14:43.126Z,2.50
2023-04-19T09:19:54.320Z,3.20
2023-04-19T09:25:35.531Z,2.73
2023-04-19T09:30:35.941Z,2.60
2023-04-19T09:35:50.264Z,3.47
2023-04-19T09:41:11.448Z,4.13
2023-04-19T09:46:33.399Z,4.07
2023-04-19T09:51:47.443Z,3.47
2023-04-19T09:56:58.913Z,2.60
2023-04-19T10:02:06.776Z,3.03
2023-04-19T10:17:37.935Z,2.43
2023-04-19T10:22:42.387Z,3.00
2023-04-19T10:27:49.152Z,2.33
2023-04-19T10:32:57.765Z,2.67
2023-04-19T10:38:09.436Z,3.03
2023-04-19T10:43:18.346Z,2.20
2023-04-19T10:48:41.315Z,2.20
2023-04-19T10:54:06.347Z,2.03
2023-04-19T10:59:29.189Z,2.70
2023-04-19T11:05:02.076Z,2.20
2023-04-19T11:10:06.905Z,2.07
2023-04-19T11:15:14.461Z,2.03
2023-04-19T11:20:18.136Z,1.50
2023-04-19T11:25:26.899Z,1.90
2023-04-19T11:30:32.303Z,1.60
2023-04-19T11:35:36.236Z,1.60
2023-04-19T11:40:42.447Z,1.67
2023-04-19T11:46:21.847Z,2.60
2023-04-19T11:51:26.457Z,1.43
2023-04-19T12:22:32.007Z,4.57
2023-04-19T12:27:55.962Z,1.53
2023-04-19T12:33:34.718Z,1.20
2023-04-19T12:39:09.925Z,1.33
2023-04-19T12:44:33.055Z,1.77
2023-04-19T12:49:57.978Z,1.50
2023-04-19T12:55:23.139Z,2.00
2023-04-19T13:00:45.987Z,1.40
2023-04-19T13:06:15.001Z,1.03
2023-04-19T13:11:43.168Z,1.37
2023-04-19T13:17:13.374Z,1.30
2023-04-19T13:22:38.993Z,1.30
2023-04-19T13:28:15.454Z,1.08
2023-04-19T13:33:41.045Z,1.58
2023-04-19T13:39:12.041Z,1.73
2023-04-19T13:44:36.972Z,1.08
2023-04-19T13:50:02.080Z,1.20
2023-04-19T13:55:44.797Z,1.80
2023-04-19T14:01:19.779Z,1.67
2023-04-19T14:06:59.146Z,1.38
2023-04-19T14:12:31.041Z,1.27
2023-04-19T14:50:49.895Z,2.27
2023-04-19T14:56:16.813Z,1.40
2023-04-19T15:01:44.902Z,1.40
2023-04-19T15:07:10.790Z,1.53
2023-04-19T15:12:36.814Z,2.50
2023-04-19T15:17:59.883Z,1.65
2023-04-19T15:23:27.852Z,1.43
2023-04-19T15:28:53.159Z,2.40
2023-04-19T15:34:19.301Z,1.83
2023-04-19T15:39:44.945Z,1.53
2023-04-19T15:45:09.895Z,1.67
2023-04-19T15:50:40.833Z,6.00
2023-04-19T15:56:06.797Z,1.67
2023-04-19T16:01:29.907Z,1.33
2023-04-19T16:07:07.876Z,1.43
2023-04-19T16:12:34.834Z,1.30
2023-04-19T16:18:00.328Z,1.27
2023-04-19T16:23:22.880Z,1.30
2023-04-19T16:28:48.977Z,1.43
2023-04-19T16:34:17.843Z,1.43
2023-04-19T16:39:41.033Z,1.30
2023-04-19T16:45:14.955Z,2.67
2023-04-19T16:50:44.858Z,1.40
2023-04-19T16:56:10.022Z,1.30
2023-04-19T17:01:35.288Z,1.30
2023-04-19T17:06:59.972Z,1.60
2023-04-19T17:12:25.984Z,1.37
2023-04-19T17:17:53.035Z,1.70
2023-04-19T17:23:15.884Z,1.40
2023-04-19T17:28:39.870Z,1.40
2023-04-19T17:34:05.119Z,1.47
2023-04-19T17:39:33.952Z,1.83
2023-04-19T17:44:56.921Z,1.83
2023-04-19T17:50:29.103Z,1.13
2023-04-19T17:55:53.163Z,0.90
2023-04-19T18:01:17.096Z,0.80
2023-04-19T18:06:44.753Z,1.00
2023-04-19T18:12:10.902Z,1.67
2023-04-19T18:17:33.991Z,0.90
2023-04-19T18:23:08.028Z,1.20
2023-04-19T18:28:37.862Z,1.30
2023-04-19T18:34:07.058Z,1.07
2023-04-19T18:39:37.820Z,1.17
2023-04-19T18:45:00.948Z,1.23
2023-04-19T18:50:37.107Z,1.20
2023-04-19T18:56:14.151Z,1.60
2023-04-19T19:01:43.713Z,1.63
2023-04-19T19:07:18.198Z,1.00
2023-04-19T19:12:51.986Z,1.30
2023-04-19T19:18:17.050Z,1.50
2023-04-19T19:23:52.537Z,1.13
2023-04-19T19:29:22.383Z,0.90
2023-04-19T19:34:54.921Z,0.90
2023-04-19T19:40:31.109Z,1.20
2023-04-19T19:45:57.064Z,2.60
2023-04-19T19:51:52.158Z,1.07
2023-04-19T20:02:56.666Z,1.57
2023-04-19T20:08:31.001Z,1.63
2023-04-19T20:14:21.210Z,1.13
2023-04-19T20:32:50.424Z,0.90
2023-04-19T20:39:23.031Z,1.20
2023-04-19T20:45:41.165Z,1.07
2023-04-19T20:51:41.342Z,2.40
2023-04-19T20:57:54.632Z,1.30
2023-04-19T21:10:49.937Z,0.97
2023-04-19T21:17:08.316Z,0.97
2023-04-19T21:22:40.056Z,1.17
2023-04-19T21:28:03.018Z,1.07
2023-04-19T21:33:27.999Z,1.10
2023-04-19T21:38:53.042Z,1.10
2023-04-19T21:44:24.247Z,1.23
2023-04-19T21:49:50.084Z,1.70
2023-04-19T21:55:16.100Z,1.47
2023-04-19T22:00:42.135Z,1.70
2023-04-19T22:06:15.207Z,1.80
2023-04-19T22:11:40.090Z,1.90
2023-04-19T22:17:03.159Z,1.10
2023-04-19T22:22:35.176Z,1.27
2023-04-19T22:28:07.228Z,1.20
2023-04-19T22:33:30.114Z,1.00
2023-04-19T22:38:57.073Z,2.43
2023-04-19T22:44:20.185Z,1.23
2023-04-19T22:49:48.217Z,1.43
2023-04-19T22:55:14.325Z,1.23
2023-04-19T23:00:43.922Z,1.20
2023-04-19T23:06:08.253Z,1.03
2023-04-19T23:11:34.109Z,1.03
2023-04-19T23:17:01.378Z,1.23
2023-04-19T23:22:24.114Z,1.87
2023-04-19T23:27:51.641Z,1.73
2023-04-19T23:33:14.314Z,1.67
2023-04-19T23:38:37.247Z,1.30
2023-04-19T23:44:04.106Z,1.07
2023-04-19T23:49:27.424Z,1.23
2023-04-19T23:54:50.114Z,1.60
